Time;durP1;ratioP1;P1;durP2;ratioP2;P2;SDS_P1;SDS_P2;PMS_P1;PMS_P2;Temp;Humidity;BMP_temperature;BMP_pressure;BME280_temperature;BME280_humidity;BME280_pressure;Samples;Min_cycle;Max_cycle;Signal;HPM_P1;HPM_P2
2023/09/20 03:59:49;;;;;;;5.00;3.40;;;;;;;17.92;90.32;100659.25;5603076;31;80113;-58
2023/09/20 04:02:53;;;;;;;4.12;3.62;;;;;;;17.92;90.32;100659.25;5581614;31;34233;-55
2023/09/20 04:05:57;;;;;;;5.07;3.42;;;;;;;17.51;100.00;100644.25;5579721;31;33185;-55
2023/09/20 04:09:06;;;;;;;7.30;3.28;;;;;;;17.48;91.08;100650.31;5582859;32;34470;-56
2023/09/20 04:12:09;;;;;;;4.95;3.50;;;;;;;17.35;91.36;100658.31;5582513;31;33478;-55
2023/09/20 04:15:12;;;;;;;3.87;2.95;;;;;;;17.23;94.38;100660.84;5581729;31;34233;-55
2023/09/20 04:18:17;;;;;;;5.63;3.43;;;;;;;17.28;96.26;100654.47;5580354;31;33617;-56
2023/09/20 04:21:20;;;;;;;6.15;3.28;;;;;;;17.17;96.17;100662.09;5582809;31;33554;-55
2023/09/20 04:24:23;;;;;;;5.22;3.40;;;;;;;17.35;100.00;100660.19;5580394;31;34429;-55
2023/09/20 04:27:30;;;;;;;5.72;3.45;;;;;;;17.38;91.64;100660.37;5581426;31;34923;-56
2023/09/20 04:30:34;;;;;;;5.37;3.45;;;;;;;17.29;94.38;100666.91;5583030;32;34379;-56
2023/09/20 04:33:38;;;;;;;6.15;3.42;;;;;;;17.14;100.00;100668.94;5580839;31;33385;-56
2023/09/20 04:36:44;;;;;;;4.75;3.37;;;;;;;17.13;100.00;100672.00;5565311;31;33275;-55
2023/09/20 04:39:47;;;;;;;5.40;3.70;;;;;;;17.33;100.00;100673.28;5561695;32;34316;-55
2023/09/20 04:42:51;;;;;;;6.30;3.87;;;;;;;17.23;100.00;100673.59;5562361;32;34191;-56
2023/09/20 04:45:55;;;;;;;7.37;4.03;;;;;;;17.29;93.44;100666.91;5560812;32;33595;-56
2023/09/20 04:48:59;;;;;;;4.72;3.40;;;;;;;17.38;91.40;100678.53;5560877;32;33147;-56
2023/09/20 04:52:04;;;;;;;6.87;4.00;;;;;;;17.24;100.00;100689.53;5562308;32;33323;-55
2023/09/20 04:55:10;;;;;;;7.70;3.80;;;;;;;17.24;100.00;100689.53;5560865;32;33571;-55
2023/09/20 04:58:12;;;;;;;4.75;3.53;;;;;;;17.32;95.38;100690.66;5561389;32;33599;-56
2023/09/20 05:01:15;;;;;;;6.35;3.72;;;;;;;17.32;92.80;100691.47;5561530;32;34288;-56
2023/09/20 05:04:20;;;;;;;4.43;3.53;;;;;;;17.39;94.71;100701.81;5569958;32;33416;-55
2023/09/20 05:07:23;;;;;;;5.68;3.50;;;;;;;17.34;95.31;100702.75;5581259;31;34304;-55
2023/09/20 05:10:26;;;;;;;6.53;4.12;;;;;;;17.47;100.00;100700.22;5570100;31;33478;-55
2023/09/20 05:13:28;;;;;;;7.95;4.20;;;;;;;17.49;100.00;100695.28;5566536;32;34446;-55
2023/09/20 05:16:32;;;;;;;8.30;4.10;;;;;;;17.59;100.00;100701.19;5565141;31;34235;-57
2023/09/20 05:19:35;;;;;;;6.82;4.12;;;;;;;17.61;100.00;100708.97;5567322;31;33485;-55
2023/09/20 05:22:38;;;;;;;6.22;3.97;;;;;;;17.72;95.54;100714.91;5551256;32;34262;-57
2023/09/20 05:25:40;;;;;;;7.62;3.78;;;;;;;17.70;99.28;100711.69;5547304;32;33294;-56
2023/09/20 05:28:43;;;;;;;8.32;3.65;;;;;;;17.69;97.91;100708.19;5550806;32;33607;-55
2023/09/20 05:31:46;;;;;;;6.35;3.80;;;;;;;17.72;92.43;100706.78;5567248;32;34404;-57
2023/09/20 05:34:48;;;;;;;8.43;4.12;;;;;;;17.76;99.63;100708.53;5566026;31;34334;-56
2023/09/20 05:37:50;;;;;;;11.50;4.37;;;;;;;17.70;95.32;100715.22;5566103;32;33321;-56
2023/09/20 05:40:53;;;;;;;9.30;4.22;;;;;;;17.88;95.49;100726.88;5564314;32;33877;-56
2023/09/20 05:43:55;;;;;;;7.90;4.22;;;;;;;18.17;94.96;100720.75;5559956;32;34289;-57
2023/09/20 05:46:59;;;;;;;10.77;4.00;;;;;;;18.32;100.00;100719.47;5546184;32;33372;-56
2023/09/20 05:50:03;;;;;;;10.35;3.90;;;;;;;18.48;100.00;100719.72;5545847;32;33992;-55
2023/09/20 05:53:07;;;;;;;5.28;3.20;;;;;;;18.60;100.00;100730.69;5546688;32;33764;-55
2023/09/20 05:56:12;;;;;;;5.32;3.75;;;;;;;18.59;100.00;100731.03;5547668;32;33549;-57
2023/09/20 05:59:16;;;;;;;12.68;4.43;;;;;;;18.70;100.00;100730.31;5560346;32;33606;-56
2023/09/20 06:02:20;;;;;;;6.57;3.65;;;;;;;18.69;94.14;100725.22;5564157;32;33827;-56
2023/09/20 06:05:25;;;;;;;11.15;3.87;;;;;;;18.59;87.40;100725.59;5563100;32;33524;-57
2023/09/20 06:08:28;;;;;;;9.30;3.95;;;;;;;18.62;95.12;100728.44;5560143;32;34839;-55
2023/09/20 06:11:31;;;;;;;8.25;4.05;;;;;;;18.61;97.27;100728.75;5564102;32;33576;-55
2023/09/20 06:14:33;;;;;;;9.02;4.32;;;;;;;18.60;87.51;100741.53;5563994;32;33276;-55
2023/09/20 06:17:36;;;;;;;7.85;4.30;;;;;;;18.65;86.34;100738.66;5564677;32;32891;-57
2023/09/20 06:20:45;;;;;;;6.25;3.90;;;;;;;18.66;87.27;100748.41;5563656;32;33120;-55
2023/09/20 06:23:49;;;;;;;7.90;3.75;;;;;;;18.73;85.60;100758.78;5561671;32;33559;-58
2023/09/20 06:26:53;;;;;;;9.38;4.57;;;;;;;18.77;85.59;100749.69;5561512;32;34285;-58
2023/09/20 06:29:55;;;;;;;8.23;3.83;;;;;;;18.86;85.74;100751.53;5562291;32;33639;-58
2023/09/20 06:32:57;;;;;;;8.00;4.07;;;;;;;19.01;84.41;100749.06;5562518;32;33156;-58
2023/09/20 06:36:00;;;;;;;7.00;3.85;;;;;;;19.06;85.61;100750.00;5557844;32;33616;-58
2023/09/20 06:39:06;;;;;;;7.95;4.12;;;;;;;19.11;85.70;100747.12;5561751;32;33216;-58
2023/09/20 06:42:08;;;;;;;11.70;4.62;;;;;;;19.17;84.55;100749.31;5565004;32;34319;-58
2023/09/20 06:45:12;;;;;;;8.55;4.68;;;;;;;19.42;94.26;100752.97;5564072;32;33724;-58
2023/09/20 06:48:15;;;;;;;18.90;5.07;;;;;;;19.46;84.20;100753.09;5561214;32;33259;-59
2023/09/20 06:51:18;;;;;;;6.75;3.65;;;;;;;19.56;85.57;100751.91;5562858;32;33839;-58
2023/09/20 06:54:21;;;;;;;11.63;4.65;;;;;;;19.71;93.86;100749.44;5560367;32;32134;-58
2023/09/20 06:57:23;;;;;;;6.12;3.08;;;;;;;19.86;89.05;100745.28;5552608;32;33712;-58
2023/09/20 07:00:26;;;;;;;9.70;4.25;;;;;;;19.94;86.47;100744.44;5561322;32;33552;-58
2023/09/20 07:03:29;;;;;;;4.97;3.72;;;;;;;19.96;83.56;100746.81;5546516;32;32960;-58
2023/09/20 07:06:32;;;;;;;7.28;3.37;;;;;;;20.20;86.26;100754.28;5551288;32;33555;-58
2023/09/20 07:09:34;;;;;;;5.62;3.58;;;;;;;20.16;81.86;100754.16;5553790;32;34187;-58
2023/09/20 07:12:38;;;;;;;11.05;3.55;;;;;;;20.11;82.23;100759.78;5546933;32;33262;-58
2023/09/20 07:15:42;;;;;;;7.47;3.37;;;;;;;20.11;81.03;100761.72;5547683;32;33730;-58
2023/09/20 07:18:45;;;;;;;5.95;3.30;;;;;;;20.15;83.11;100760.72;5549296;32;33641;-58
2023/09/20 07:21:47;;;;;;;5.32;3.17;;;;;;;20.32;94.06;100761.66;5549679;32;33673;-58
2023/09/20 07:24:54;;;;;;;8.45;3.83;;;;;;;20.32;86.97;100761.66;5554193;32;33595;-58
2023/09/20 07:27:59;;;;;;;6.15;3.58;;;;;;;20.40;94.98;100761.59;5547133;32;33594;-58
2023/09/20 07:31:03;;;;;;;5.18;3.25;;;;;;;20.51;92.31;100761.19;5541417;32;33220;-58
2023/09/20 07:34:23;;;;;;;6.07;3.40;;;;;;;20.51;90.55;100763.91;5546383;32;33639;-58
2023/09/20 07:37:27;;;;;;;11.82;3.05;;;;;;;20.64;85.91;100770.97;5543021;32;33688;-58
2023/09/20 07:40:31;;;;;;;5.53;3.00;;;;;;;20.71;89.74;100773.13;5542092;32;33678;-58
2023/09/20 07:43:33;;;;;;;8.52;3.45;;;;;;;20.76;87.17;100775.63;5552357;32;33738;-58
2023/09/20 07:46:38;;;;;;;6.28;3.40;;;;;;;20.74;79.25;100775.97;5561184;32;32118;-58
2023/09/20 07:49:41;;;;;;;5.93;3.83;;;;;;;20.73;78.56;100768.13;5555766;32;33565;-58
2023/09/20 07:52:44;;;;;;;10.45;3.42;;;;;;;20.90;84.74;100767.12;5561580;32;33794;-58
2023/09/20 07:56:01;;;;;;;7.75;3.20;;;;;;;20.84;77.29;100763.81;5560791;32;33690;-58
2023/09/20 07:59:04;;;;;;;5.03;2.70;;;;;;;20.82;76.63;100764.16;5558893;32;33700;-58
2023/09/20 08:02:09;;;;;;;5.18;2.22;;;;;;;20.90;79.59;100759.75;5556350;32;33519;-58
2023/09/20 08:05:13;;;;;;;5.07;2.55;;;;;;;20.93;75.80;100772.69;5562103;32;33780;-58
2023/09/20 08:08:15;;;;;;;6.03;2.70;;;;;;;20.92;78.03;100762.13;5560216;32;33685;-58
2023/09/20 08:11:17;;;;;;;6.03;2.35;;;;;;;21.17;84.62;100758.25;5560170;32;34801;-58
2023/09/20 08:14:24;;;;;;;7.07;2.25;;;;;;;21.18;81.96;100757.09;5559684;32;34226;-58
2023/09/20 08:20:49;;;;;;;6.25;2.10;;;;;;;21.27;78.99;100767.91;5556983;32;32145;-58
2023/09/20 09:00:51;;;;;;;9.18;2.83;;;;;;;22.00;71.95;100747.81;5558261;32;33279;-58
2023/09/20 09:03:57;;;;;;;3.67;1.87;;;;;;;22.01;72.53;100744.72;5550723;32;33196;-59
2023/09/20 09:07:02;;;;;;;5.62;2.05;;;;;;;22.15;72.67;100738.91;5545453;32;33131;-58
2023/09/20 09:10:05;;;;;;;5.45;2.30;;;;;;;22.14;71.68;100739.22;5562402;32;36127;-58
2023/09/20 09:13:07;;;;;;;3.67;1.77;;;;;;;22.15;67.63;100740.78;5554246;32;33668;-59
2023/09/20 09:16:13;;;;;;;5.53;2.17;;;;;;;22.24;70.70;100734.06;5562683;32;33750;-58
2023/09/20 09:19:16;;;;;;;3.12;1.77;;;;;;;22.25;69.01;100729.38;5551221;32;33118;-59
2023/09/20 09:22:19;;;;;;;6.47;2.25;;;;;;;22.33;72.15;100719.47;5545728;32;34318;-59
2023/09/20 09:25:31;;;;;;;5.68;1.92;;;;;;;22.38;70.59;100722.69;5553234;32;36108;-58
2023/09/20 09:28:38;;;;;;;5.75;2.15;;;;;;;22.45;71.12;100711.16;5548550;32;34016;-58
2023/09/20 09:31:40;;;;;;;6.18;2.10;;;;;;;22.51;72.77;100709.75;5549254;32;33747;-59
2023/09/20 09:34:43;;;;;;;13.48;3.75;;;;;;;22.60;72.22;100713.09;5553986;32;32165;-58
2023/09/20 09:37:46;;;;;;;5.07;2.05;;;;;;;22.61;70.48;100705.69;5558717;32;34847;-58
2023/09/20 09:40:53;;;;;;;3.80;2.00;;;;;;;22.69;69.53;100702.00;5555273;32;33675;-59
2023/09/20 09:43:58;;;;;;;6.37;2.22;;;;;;;22.72;68.25;100701.31;5544810;32;33754;-58
2023/09/20 09:47:04;;;;;;;;;;;;;;;22.73;67.97;100690.00;5553110;32;33244;-58
2023/09/20 09:50:06;;;;;;;3.95;2.28;;;;;;;22.74;68.46;100683.38;5554802;32;34441;-58
2023/09/20 09:53:10;;;;;;;9.77;2.35;;;;;;;22.82;67.24;100680.84;5553893;32;33710;-58
2023/09/20 09:56:13;;;;;;;14.75;2.92;;;;;;;22.90;67.54;100677.87;5558302;32;33556;-58
2023/09/20 09:59:16;;;;;;;5.75;1.90;;;;;;;22.98;70.66;100682.41;5550951;32;33888;-59
2023/09/20 10:02:21;;;;;;;4.85;2.33;;;;;;;23.00;67.37;100692.97;5554561;32;36255;-59
2023/09/20 10:05:25;;;;;;;3.90;2.22;;;;;;;23.04;65.47;100685.63;5556440;32;33460;-58
2023/09/20 10:08:31;;;;;;;3.00;2.08;;;;;;;23.08;63.35;100680.25;5547680;32;33575;-58
2023/09/20 10:11:34;;;;;;;4.97;2.00;;;;;;;23.10;65.33;100678.75;5549801;32;33933;-59
2023/09/20 10:14:38;;;;;;;4.90;2.53;;;;;;;23.05;64.02;100678.25;5548999;32;34104;-58
2023/09/20 10:17:59;;;;;;;2.87;1.90;;;;;;;23.06;65.77;100677.09;5555083;32;33174;-59
2023/09/20 10:21:14;;;;;;;4.80;2.00;;;;;;;;;;5552737;32;33263;-58
2023/09/20 10:24:26;;;;;;;2.92;1.70;;;;;;;23.09;63.10;100665.44;5555981;32;34425;-59
2023/09/20 10:27:31;;;;;;;4.28;1.65;;;;;;;23.12;63.28;100662.78;5556859;32;33680;-59
2023/09/20 10:30:34;;;;;;;2.65;1.50;;;;;;;23.24;60.45;100664.56;5554633;32;33944;-59
2023/09/20 10:33:41;;;;;;;3.30;1.73;;;;;;;23.33;60.50;100661.66;5551996;32;34221;-59
2023/09/20 10:36:53;;;;;;;3.97;1.65;;;;;;;23.42;61.26;100664.97;5547852;32;33706;-59
2023/09/20 10:39:57;;;;;;;2.83;1.70;;;;;;;23.43;59.96;100655.59;5548859;32;33832;-58
2023/09/20 10:43:00;;;;;;;6.20;1.58;;;;;;;23.44;61.07;100657.97;5552374;32;33335;-58
2023/09/20 10:46:09;;;;;;;2.67;1.50;;;;;;;23.45;61.12;100659.56;5549430;32;34337;-60
2023/09/20 10:49:16;;;;;;;4.15;1.58;;;;;;;23.38;61.60;100659.41;5552292;32;34342;-59
2023/09/20 10:52:33;;;;;;;5.50;1.80;;;;;;;23.33;61.69;100653.44;5553673;32;33844;-58
2023/09/20 10:55:36;;;;;;;7.22;1.85;;;;;;;23.29;60.11;100655.31;5550320;32;33493;-58
2023/09/20 10:58:42;;;;;;;4.15;1.90;;;;;;;23.31;60.71;100650.25;5549441;32;33803;-59
2023/09/20 11:01:58;;;;;;;4.37;1.67;;;;;;;23.32;61.43;100649.91;5554568;32;33564;-56
2023/09/20 11:05:04;;;;;;;6.55;1.80;;;;;;;23.30;61.72;100641.25;5552644;32;33263;-58
2023/09/20 11:08:08;;;;;;;3.33;1.50;;;;;;;23.32;61.02;100638.19;5548072;32;32931;-58
2023/09/20 11:11:15;;;;;;;5.22;1.77;;;;;;;23.43;59.79;100626.28;5550072;32;32882;-59
2023/09/20 11:14:19;;;;;;;2.62;1.48;;;;;;;23.54;58.60;100618.31;5555404;32;34373;-59
2023/09/20 11:17:21;;;;;;;5.00;1.65;;;;;;;23.66;58.65;100625.53;5551600;32;34478;-58
2023/09/20 11:20:24;;;;;;;2.03;1.10;;;;;;;23.78;57.35;100622.69;5551403;32;32894;-58
2023/09/20 11:23:27;;;;;;;2.45;1.42;;;;;;;23.80;58.10;100614.09;5554319;32;33654;-59
2023/09/20 11:26:30;;;;;;;1.80;1.40;;;;;;;23.83;59.05;100616.09;5555350;32;33150;-59
2023/09/20 11:29:37;;;;;;;3.20;1.65;;;;;;;23.74;59.31;100610.88;5555831;32;34982;-58
2023/09/20 11:32:40;;;;;;;2.83;1.50;;;;;;;23.60;59.04;100605.09;5559606;32;32123;-59
2023/09/20 11:35:42;;;;;;;2.83;1.60;;;;;;;23.54;60.62;100598.34;5548785;32;32997;-59
2023/09/20 11:38:45;;;;;;;3.15;1.75;;;;;;;23.67;61.96;100602.47;5548194;32;33709;-58
2023/09/20 11:41:47;;;;;;;3.70;1.62;;;;;;;23.62;58.82;100608.28;5553966;32;33647;-59
2023/09/20 11:45:09;;;;;;;3.40;1.60;;;;;;;23.71;61.33;100603.41;5560619;32;33412;-59
2023/09/20 11:48:15;;;;;;;2.55;1.30;;;;;;;23.72;58.62;100602.22;5553721;32;33068;-58
2023/09/20 11:51:18;;;;;;;2.75;1.60;;;;;;;23.75;55.27;100595.25;5553231;32;32190;-59
2023/09/20 11:54:35;;;;;;;4.32;1.50;;;;;;;23.81;56.38;100596.53;5556747;32;34431;-58
2023/09/20 11:57:45;;;;;;;3.72;1.60;;;;;;;23.78;56.99;100598.03;5560247;32;34378;-58
2023/09/20 12:00:49;;;;;;;4.30;1.30;;;;;;;23.75;57.38;100584.28;5559446;32;34419;-58
2023/09/20 12:03:52;;;;;;;2.00;1.52;;;;;;;23.76;58.77;100585.87;5556055;32;32907;-58
2023/09/20 12:06:56;;;;;;;2.58;1.50;;;;;;;23.75;57.08;100578.81;5562794;32;32875;-58
2023/09/20 12:09:59;;;;;;;4.72;1.48;;;;;;;23.76;57.40;100575.69;5563402;32;33643;-58
2023/09/20 12:13:01;;;;;;;3.08;1.40;;;;;;;23.84;57.96;100571.94;5557366;32;33779;-58
2023/09/20 12:16:04;;;;;;;2.65;1.50;;;;;;;23.95;55.11;100566.66;5548143;32;33759;-58
2023/09/20 12:19:07;;;;;;;2.28;1.20;;;;;;;24.02;54.17;100563.22;5561279;32;34350;-59
2023/09/20 12:22:10;;;;;;;3.47;1.27;;;;;;;24.10;53.84;100568.44;5553652;32;33887;-58
2023/09/20 12:25:13;;;;;;;6.45;1.70;;;;;;;24.25;54.39;100563.97;5562317;32;34037;-58
2023/09/20 12:28:16;;;;;;;3.72;1.58;;;;;;;24.49;53.31;100559.25;5557551;32;33242;-59
2023/09/20 12:31:23;;;;;;;2.97;1.17;;;;;;;24.46;52.90;100566.25;5563253;32;33784;-58
2023/09/20 12:34:26;;;;;;;2.50;1.50;;;;;;;24.45;51.32;100548.25;5563215;31;33605;-58
2023/09/20 12:37:30;;;;;;;2.05;1.10;;;;;;;24.52;51.87;100551.09;5559944;32;32919;-58
2023/09/20 12:40:33;;;;;;;4.07;1.27;;;;;;;24.57;53.37;100545.31;5552844;32;34171;-58
2023/09/20 12:43:37;;;;;;;3.15;1.12;;;;;;;24.57;51.53;100537.06;5557582;32;33021;-58
2023/09/20 12:46:41;;;;;;;3.53;1.35;;;;;;;24.61;51.17;100537.12;5560472;32;33367;-58
2023/09/20 12:49:46;;;;;;;4.80;1.30;;;;;;;24.64;51.50;100530.91;5553994;32;33655;-59
2023/09/20 12:52:49;;;;;;;4.55;1.50;;;;;;;24.67;52.06;100526.59;5553008;32;33645;-58
2023/09/20 12:55:51;;;;;;;5.72;1.52;;;;;;;24.73;52.29;100525.91;5561945;32;32487;-59
2023/09/20 12:58:54;;;;;;;3.42;1.25;;;;;;;24.88;51.98;100513.16;5562810;32;33842;-59
2023/09/20 13:01:59;;;;;;;2.05;0.93;;;;;;;24.75;51.43;100514.59;5556662;32;36583;-59
2023/09/20 13:05:03;;;;;;;3.45;1.58;;;;;;;24.69;51.88;100513.31;5562675;32;33268;-58
2023/09/20 13:08:06;;;;;;;2.97;1.30;;;;;;;24.63;50.99;100512.84;5562549;32;33248;-59
2023/09/20 13:11:13;;;;;;;3.10;1.40;;;;;;;24.62;50.54;100494.84;5560357;32;32864;-59
2023/09/20 13:14:19;;;;;;;6.75;1.30;;;;;;;24.69;50.73;100496.88;5550150;32;33607;-59
2023/09/20 13:17:22;;;;;;;2.37;1.27;;;;;;;24.81;52.10;100486.47;5560176;32;33685;-58
2023/09/20 13:20:25;;;;;;;4.43;1.58;;;;;;;24.77;50.82;100476.63;5563168;32;33710;-58
2023/09/20 13:23:29;;;;;;;3.90;1.40;;;;;;;24.77;50.88;100482.91;5551931;32;33344;-58
2023/09/20 13:26:38;;;;;;;1.75;1.15;;;;;;;24.91;50.46;100481.47;5552710;32;33719;-59
2023/09/20 13:29:41;;;;;;;3.17;1.30;;;;;;;24.96;51.20;100478.38;5553990;32;33076;-59
2023/09/20 13:32:46;;;;;;;4.00;1.20;;;;;;;24.80;49.09;100473.91;5551090;32;33851;-58
2023/09/20 13:35:49;;;;;;;7.95;1.60;;;;;;;24.78;48.97;100467.22;5557255;31;33723;-58
2023/09/20 13:38:51;;;;;;;4.10;1.23;;;;;;;24.85;50.29;100465.34;5556886;32;33589;-59
2023/09/20 13:41:54;;;;;;;17.65;3.65;;;;;;;24.93;50.67;100460.72;5547303;31;33385;-59
2023/09/20 13:44:57;;;;;;;4.28;1.58;;;;;;;24.98;51.00;100459.62;5552658;32;34232;-59
2023/09/20 13:48:00;;;;;;;6.53;1.65;;;;;;;25.09;49.30;100461.28;5544183;32;34378;-58
2023/09/20 13:51:02;;;;;;;6.85;1.65;;;;;;;25.04;51.82;100461.63;5550206;32;34057;-59
2023/09/20 13:54:06;;;;;;;4.70;1.50;;;;;;;24.91;51.85;100457.59;5557338;32;33883;-59
2023/09/20 13:57:11;;;;;;;2.80;1.52;;;;;;;24.76;52.07;100462.09;5550741;32;34441;-59
2023/09/20 14:00:16;;;;;;;10.10;2.03;;;;;;;24.80;52.46;100454.72;5550448;32;33631;-59
2023/09/20 14:03:19;;;;;;;4.72;1.40;;;;;;;24.82;51.82;100448.84;5550345;32;33617;-59
2023/09/20 14:06:22;;;;;;;4.32;1.65;;;;;;;24.79;51.60;100449.59;5557096;32;34007;-59
2023/09/20 14:09:24;;;;;;;7.97;1.60;;;;;;;24.89;51.08;100448.16;5555608;32;34351;-59
2023/09/20 14:12:26;;;;;;;7.65;1.50;;;;;;;24.87;51.48;100440.31;5559754;32;34242;-59
2023/09/20 14:15:29;;;;;;;5.75;1.40;;;;;;;24.88;49.94;100441.09;5554650;32;34398;-58
2023/09/20 14:18:32;;;;;;;5.35;1.50;;;;;;;24.82;50.00;100435.16;5561532;32;34183;-58
2023/09/20 14:21:35;;;;;;;4.85;1.50;;;;;;;24.85;53.03;100431.66;5561145;32;33377;-58
2023/09/20 14:24:37;;;;;;;5.07;1.42;;;;;;;24.94;51.40;100434.13;5563338;32;33737;-59
2023/09/20 14:27:41;;;;;;;8.48;1.83;;;;;;;24.88;50.05;100427.37;5552456;32;33437;-59
2023/09/20 14:30:43;;;;;;;7.95;1.50;;;;;;;24.83;52.11;100423.81;5556864;32;33704;-58
2023/09/20 14:33:46;;;;;;;6.53;1.58;;;;;;;24.95;49.38;100424.72;5562027;32;33712;-56
2023/09/20 14:36:48;;;;;;;3.62;1.33;;;;;;;24.87;52.71;100432.09;5553524;32;33428;-56
2023/09/20 14:39:52;;;;;;;7.03;1.50;;;;;;;24.89;49.87;100427.00;5561519;32;34397;-56
2023/09/20 14:42:56;;;;;;;8.57;1.83;;;;;;;24.83;49.49;100429.31;5557793;32;33773;-56
2023/09/20 14:45:58;;;;;;;9.93;1.83;;;;;;;24.80;50.80;100426.50;5554886;32;33531;-56
2023/09/20 14:49:02;;;;;;;6.70;1.45;;;;;;;24.82;49.95;100418.69;5555419;32;35107;-56
2023/09/20 14:52:04;;;;;;;3.55;1.27;;;;;;;24.80;50.79;100421.03;5557380;32;33387;-56
2023/09/20 14:55:09;;;;;;;6.05;1.45;;;;;;;24.81;49.41;100417.13;5556986;32;33926;-57
2023/09/20 14:58:12;;;;;;;6.05;1.42;;;;;;;24.80;48.19;100415.53;5558586;32;33781;-56
2023/09/20 15:01:19;;;;;;;5.75;1.70;;;;;;;24.87;48.62;100423.03;5558711;32;33755;-56
2023/09/20 15:04:22;;;;;;;4.97;1.40;;;;;;;24.88;48.59;100425.44;5559278;32;33450;-56
2023/09/20 15:07:24;;;;;;;2.80;1.00;;;;;;;24.82;48.23;100422.22;5558951;32;34391;-57
2023/09/20 15:10:26;;;;;;;6.95;1.15;;;;;;;24.76;47.72;100409.22;5554827;32;33626;-56
2023/09/20 15:13:29;;;;;;;4.20;1.00;;;;;;;24.70;47.58;100411.53;5550976;32;33776;-56
2023/09/20 15:16:31;;;;;;;4.32;1.23;;;;;;;24.74;47.58;100415.09;5555427;32;34008;-57
2023/09/20 15:19:34;;;;;;;2.97;1.30;;;;;;;24.73;47.21;100408.03;5557533;32;33642;-57
2023/09/20 15:22:37;;;;;;;2.60;1.02;;;;;;;24.69;46.85;100404.47;5553156;32;34452;-56
2023/09/20 15:25:40;;;;;;;6.78;1.23;;;;;;;24.76;46.83;100406.50;5555116;32;33520;-56
2023/09/20 15:28:43;;;;;;;5.75;1.90;;;;;;;24.69;47.05;100396.25;5559899;32;33612;-56
2023/09/20 15:31:45;;;;;;;5.07;1.35;;;;;;;24.66;47.04;100401.69;5556257;32;33212;-56
2023/09/20 15:34:53;;;;;;;5.62;1.20;;;;;;;24.67;47.51;100398.59;5554287;32;34405;-57
2023/09/20 15:37:55;;;;;;;7.55;1.12;;;;;;;24.65;46.75;100394.62;5564316;32;33712;-56
2023/09/20 15:41:01;;;;;;;4.00;1.50;;;;;;;24.66;46.63;100397.00;5557794;32;33773;-56
2023/09/20 15:44:04;;;;;;;3.12;1.17;;;;;;;24.59;47.25;100399.66;5553664;32;33285;-59
2023/09/20 15:47:07;;;;;;;5.70;1.52;;;;;;;24.57;47.23;100400.03;5556883;32;33667;-59
2023/09/20 15:50:10;;;;;;;3.45;1.20;;;;;;;24.53;47.14;100398.41;5559380;32;33706;-59
2023/09/20 15:53:14;;;;;;;6.55;1.20;;;;;;;24.49;47.62;100398.38;5555410;32;33745;-58
2023/09/20 15:56:16;;;;;;;6.50;1.65;;;;;;;24.61;47.32;100395.38;5557272;32;34060;-59
2023/09/20 15:59:19;;;;;;;8.05;1.30;;;;;;;24.63;47.11;100391.47;5557608;32;34277;-59
2023/09/20 16:02:22;;;;;;;5.28;1.23;;;;;;;24.55;46.89;100396.09;5566624;32;33717;-59
2023/09/20 16:05:25;;;;;;;6.47;1.52;;;;;;;24.57;48.73;100386.34;5559435;32;33580;-59
2023/09/20 16:08:28;;;;;;;4.75;1.10;;;;;;;24.54;47.27;100378.88;5559762;32;34252;-59
2023/09/20 16:11:30;;;;;;;8.52;1.42;;;;;;;24.52;47.67;100377.66;5556489;31;33505;-59
2023/09/20 16:14:35;;;;;;;8.27;1.60;;;;;;;24.47;46.89;100377.97;5563452;32;34420;-59
2023/09/20 16:17:38;;;;;;;4.95;1.20;;;;;;;24.38;49.87;100383.75;5565267;32;33604;-59
2023/09/20 16:20:40;;;;;;;6.97;1.62;;;;;;;24.33;51.74;100384.84;5565569;32;33639;-59
2023/09/20 16:23:46;;;;;;;5.90;1.30;;;;;;;24.25;54.52;100383.19;5564782;32;33327;-59
2023/09/20 16:26:48;;;;;;;7.37;1.52;;;;;;;24.15;52.80;100381.09;5565358;32;33457;-58
2023/09/20 16:29:55;;;;;;;4.57;1.35;;;;;;;24.10;55.07;100382.22;5565728;32;32931;-59
2023/09/20 16:32:58;;;;;;;6.10;1.67;;;;;;;24.06;59.43;100383.34;5565919;32;33648;-59
2023/09/20 16:36:01;;;;;;;5.78;1.65;;;;;;;23.98;58.56;100384.41;5565859;32;33795;-59
2023/09/20 16:39:04;;;;;;;5.90;1.70;;;;;;;23.89;55.99;100379.19;5564932;32;33780;-59
2023/09/20 16:42:07;;;;;;;3.33;1.48;;;;;;;23.81;55.27;100375.59;5564950;32;34411;-59
2023/09/20 16:45:15;;;;;;;7.00;1.65;;;;;;;23.72;54.52;100380.53;5565251;32;33710;-59
2023/09/20 16:48:17;;;;;;;5.28;1.60;;;;;;;23.63;56.54;100382.72;5565108;32;33696;-59
2023/09/20 16:51:20;;;;;;;4.68;1.67;;;;;;;23.56;54.87;100371.66;5555722;32;33788;-59
